createdAt,value
2019-02-28T00:00:56.268Z,3.00
2019-02-28T00:03:26.256Z,2.40
2019-02-28T00:05:56.098Z,3.07
2019-02-28T00:08:25.798Z,2.20
2019-02-28T00:10:54.806Z,2.90
2019-02-28T00:13:23.814Z,2.63
2019-02-28T00:15:52.742Z,2.20
2019-02-28T00:18:21.662Z,2.77
2019-02-28T00:20:51.041Z,2.57
2019-02-28T00:23:21.949Z,2.90
2019-02-28T00:25:50.622Z,3.10
2019-02-28T00:28:19.886Z,2.83
2019-02-28T00:30:48.909Z,3.07
2019-02-28T00:33:17.893Z,2.77
2019-02-28T00:35:46.805Z,3.03
2019-02-28T00:38:15.664Z,2.93
2019-02-28T00:40:44.591Z,3.03
2019-02-28T00:43:13.585Z,2.50
2019-02-28T00:45:42.629Z,2.77
2019-02-28T00:48:11.546Z,3.40
2019-02-28T00:50:40.594Z,3.17
2019-02-28T00:53:09.612Z,2.87
2019-02-28T00:55:38.673Z,3.53
2019-02-28T00:58:07.670Z,2.90
2019-02-28T01:00:38.079Z,3.13
2019-02-28T01:03:07.174Z,2.67
2019-02-28T01:05:36.637Z,3.10
2019-02-28T01:08:06.268Z,3.00
2019-02-28T01:10:38.834Z,3.13
2019-02-28T01:13:06.030Z,3.03
2019-02-28T01:15:35.031Z,3.37
2019-02-28T01:18:04.013Z,2.90
2019-02-28T01:20:33.011Z,2.97
2019-02-28T01:23:02.025Z,2.73
2019-02-28T01:25:31.013Z,3.07
2019-02-28T01:27:59.858Z,3.20
2019-02-28T01:30:29.121Z,2.43
2019-02-28T01:32:58.102Z,2.20
2019-02-28T01:35:27.094Z,2.30
2019-02-28T01:37:56.279Z,2.40
2019-02-28T01:40:25.507Z,2.10
2019-02-28T01:42:55.104Z,2.73
2019-02-28T01:45:24.213Z,2.53
2019-02-28T01:47:53.055Z,2.50
2019-02-28T01:50:21.969Z,2.23
2019-02-28T01:52:51.068Z,2.70
2019-02-28T01:55:19.986Z,3.00
2019-02-28T01:57:49.070Z,2.47
2019-02-28T02:00:18.117Z,2.73
2019-02-28T02:02:47.102Z,2.17
2019-02-28T02:05:16.885Z,2.77
2019-02-28T02:07:46.898Z,2.53
2019-02-28T02:10:22.164Z,2.30
2019-02-28T02:12:52.066Z,3.60
2019-02-28T02:15:21.110Z,2.80
2019-02-28T02:17:50.118Z,2.90
2019-02-28T02:20:19.353Z,2.57
2019-02-28T02:22:48.350Z,2.60
2019-02-28T02:25:17.345Z,2.80
2019-02-28T02:27:46.351Z,2.40
2019-02-28T02:30:17.786Z,2.90
2019-02-28T02:32:46.809Z,2.80
2019-02-28T02:35:16.226Z,2.43
2019-02-28T02:37:45.221Z,2.73
2019-02-28T02:40:14.282Z,3.37
2019-02-28T02:42:47.672Z,2.83
2019-02-28T02:45:14.330Z,3.10
2019-02-28T02:47:43.316Z,3.10
2019-02-28T02:50:13.541Z,2.90
2019-02-28T02:52:42.522Z,3.00
2019-02-28T02:55:11.724Z,3.27
2019-02-28T02:57:41.021Z,3.80
2019-02-28T03:00:14.902Z,3.67
2019-02-28T03:02:44.241Z,2.90
2019-02-28T03:05:13.650Z,2.60
2019-02-28T03:07:42.638Z,3.47
2019-02-28T03:10:17.366Z,2.87
2019-02-28T03:12:43.090Z,4.20
2019-02-28T03:15:13.161Z,3.00
2019-02-28T03:17:46.449Z,3.03
2019-02-28T03:20:14.756Z,3.37
2019-02-28T03:22:43.786Z,3.87
2019-02-28T03:25:13.336Z,3.20
2019-02-28T03:27:42.254Z,3.90
2019-02-28T03:30:26.368Z,3.33
2019-02-28T03:32:44.314Z,3.10
2019-02-28T03:35:13.415Z,3.70
2019-02-28T03:37:42.359Z,3.40
2019-02-28T03:40:11.453Z,2.83
2019-02-28T03:42:40.372Z,3.30
2019-02-28T03:45:09.479Z,3.67
2019-02-28T03:47:38.511Z,3.90
2019-02-28T03:50:07.750Z,3.73
2019-02-28T03:52:42.260Z,3.60
2019-02-28T03:55:07.835Z,4.20
2019-02-28T03:57:36.755Z,4.07
2019-02-28T04:00:09.685Z,3.30
2019-02-28T04:02:38.683Z,4.23
2019-02-28T04:05:07.880Z,3.67
2019-02-28T04:07:36.897Z,3.80
2019-02-28T04:10:06.258Z,3.27
2019-02-28T04:12:35.112Z,2.90
2019-02-28T04:15:05.733Z,4.60
2019-02-28T04:17:34.890Z,3.70
2019-02-28T04:20:03.901Z,3.60
2019-02-28T04:22:32.916Z,3.53
2019-02-28T04:25:01.839Z,4.40
2019-02-28T04:27:30.823Z,4.37
2019-02-28T04:30:06.630Z,4.27
2019-02-28T04:32:30.534Z,4.13
2019-02-28T04:34:59.469Z,4.63
2019-02-28T04:37:28.483Z,4.83
2019-02-28T04:39:57.410Z,4.90
2019-02-28T04:42:26.395Z,4.70
2019-02-28T04:44:55.334Z,5.03
2019-02-28T04:47:24.267Z,5.20
2019-02-28T04:49:53.514Z,5.00
2019-02-28T04:52:23.797Z,5.53
2019-02-28T04:54:52.645Z,4.63
2019-02-28T04:57:21.612Z,9.20
2019-02-28T04:59:50.597Z,6.50
2019-02-28T05:02:19.916Z,5.93
2019-02-28T05:04:49.643Z,5.10
2019-02-28T05:07:18.581Z,5.20
2019-02-28T05:09:48.248Z,5.57
2019-02-28T05:12:17.733Z,4.40
2019-02-28T05:14:46.679Z,5.67
2019-02-28T05:17:15.617Z,5.70
2019-02-28T05:19:46.070Z,4.40
2019-02-28T05:22:15.073Z,4.53
2019-02-28T05:24:43.919Z,5.30
2019-02-28T05:27:12.771Z,4.53
2019-02-28T05:29:44.013Z,4.77
2019-02-28T05:32:12.362Z,4.53
2019-02-28T05:34:41.218Z,5.43
2019-02-28T05:37:12.487Z,5.10
2019-02-28T05:39:40.743Z,4.90
2019-02-28T05:42:09.793Z,6.20
2019-02-28T05:44:40.287Z,5.30
2019-02-28T05:47:11.189Z,5.07
2019-02-28T05:49:40.959Z,5.23
2019-02-28T05:52:10.978Z,5.70
2019-02-28T05:54:39.915Z,5.07
2019-02-28T05:57:08.944Z,5.80
2019-02-28T05:59:37.914Z,5.70
2019-02-28T06:02:06.886Z,5.60
2019-02-28T06:04:37.136Z,5.10
2019-02-28T06:07:06.968Z,6.20
2019-02-28T06:09:36.219Z,5.70
2019-02-28T06:12:06.607Z,5.07
2019-02-28T06:14:35.859Z,5.33
2019-02-28T06:17:05.043Z,5.27
2019-02-28T06:19:33.883Z,4.43
2019-02-28T06:22:02.922Z,11.13
2019-02-28T06:24:31.773Z,9.13
2019-02-28T06:27:03.720Z,9.70
2019-02-28T06:29:32.630Z,13.37
2019-02-28T06:32:01.821Z,8.97
2019-02-28T06:34:30.685Z,12.50
2019-02-28T06:37:00.387Z,18.90
2019-02-28T06:39:30.351Z,35.67
2019-02-28T06:41:59.351Z,18.87
2019-02-28T06:44:28.316Z,16.33
2019-02-28T06:46:57.170Z,24.93
2019-02-28T06:49:26.014Z,25.63
2019-02-28T06:51:54.970Z,14.30
2019-02-28T06:54:23.815Z,10.47
2019-02-28T06:56:54.142Z,8.97
2019-02-28T06:59:23.487Z,9.13
2019-02-28T07:01:56.566Z,9.73
2019-02-28T07:04:23.382Z,9.00
2019-02-28T07:06:52.318Z,13.10
2019-02-28T07:09:21.317Z,15.97
2019-02-28T07:11:51.290Z,13.37
2019-02-28T07:14:20.998Z,12.73
2019-02-28T07:16:49.838Z,11.93
2019-02-28T07:19:18.704Z,10.20
2019-02-28T07:21:47.707Z,11.77
2019-02-28T07:24:16.962Z,10.70
2019-02-28T07:26:45.961Z,10.63
2019-02-28T07:29:14.829Z,9.97
2019-02-28T07:31:43.759Z,9.00
2019-02-28T07:34:12.934Z,9.17
2019-02-28T07:36:44.636Z,8.70
2019-02-28T07:39:12.598Z,9.10
2019-02-28T07:41:41.658Z,9.43
2019-02-28T07:44:10.555Z,10.10
2019-02-28T07:46:42.399Z,8.07
2019-02-28T07:49:10.219Z,9.90
2019-02-28T07:51:39.079Z,9.40
2019-02-28T07:54:08.393Z,10.60
2019-02-28T07:56:42.662Z,10.90
2019-02-28T07:59:08.106Z,11.07
2019-02-28T08:01:37.039Z,12.30
2019-02-28T08:04:06.045Z,11.20
2019-02-28T08:06:36.371Z,11.70
2019-02-28T08:09:13.327Z,13.70
2019-02-28T08:11:42.283Z,13.93
2019-02-28T08:14:12.167Z,14.00
2019-02-28T08:16:42.294Z,14.70
2019-02-28T08:19:11.230Z,15.30
2019-02-28T08:21:43.560Z,15.80
2019-02-28T08:24:10.826Z,15.73
2019-02-28T08:26:39.851Z,16.70
2019-02-28T08:29:11.594Z,15.57
2019-02-28T08:31:39.605Z,16.00
2019-02-28T08:34:08.725Z,17.87
2019-02-28T08:36:37.657Z,17.67
2019-02-28T08:39:16.280Z,15.83
2019-02-28T08:41:45.436Z,15.80
2019-02-28T08:44:14.459Z,16.97
2019-02-28T08:46:46.250Z,16.40
2019-02-28T08:49:14.253Z,18.07
2019-02-28T08:51:43.342Z,17.13
2019-02-28T08:54:12.306Z,16.30
2019-02-28T08:56:41.239Z,18.70
2019-02-28T08:59:11.983Z,16.97
2019-02-28T09:01:44.146Z,20.93
2019-02-28T09:04:12.027Z,18.10
2019-02-28T09:06:41.689Z,19.07
2019-02-28T09:09:12.158Z,20.17
2019-02-28T09:11:41.158Z,19.30
2019-02-28T09:14:10.434Z,19.00
2019-02-28T09:16:39.768Z,16.60
2019-02-28T09:19:09.390Z,19.40
2019-02-28T09:21:38.717Z,18.67
2019-02-28T09:24:09.470Z,18.30
2019-02-28T09:26:38.779Z,15.47
2019-02-28T09:29:07.686Z,16.57
2019-02-28T09:31:39.061Z,16.30
2019-02-28T09:34:09.242Z,16.30
2019-02-28T09:36:38.170Z,17.03
2019-02-28T09:39:08.178Z,16.67
2019-02-28T09:41:40.154Z,16.10
2019-02-28T09:44:07.776Z,18.07
2019-02-28T09:46:36.665Z,15.83
2019-02-28T09:49:05.858Z,17.30
2019-02-28T09:51:34.954Z,17.13
2019-02-28T09:54:03.959Z,16.23
2019-02-28T09:56:32.962Z,17.33
2019-02-28T09:59:03.234Z,15.97
2019-02-28T10:01:32.642Z,17.93
2019-02-28T10:04:01.634Z,16.93
2019-02-28T10:06:30.561Z,16.40
2019-02-28T10:08:59.510Z,16.77
2019-02-28T10:11:31.685Z,16.80
2019-02-28T10:13:59.089Z,17.03
2019-02-28T10:16:28.339Z,16.00
2019-02-28T10:18:58.007Z,15.47
2019-02-28T10:21:27.360Z,16.60
2019-02-28T10:23:57.938Z,14.97
2019-02-28T10:26:27.137Z,15.10
2019-02-28T10:28:56.173Z,16.37
2019-02-28T10:31:35.178Z,15.60
2019-02-28T10:33:55.841Z,16.50
2019-02-28T10:36:24.785Z,16.77
2019-02-28T10:38:53.713Z,16.63
2019-02-28T10:41:24.268Z,15.00
2019-02-28T10:43:55.833Z,17.13
2019-02-28T10:46:23.998Z,18.30
2019-02-28T10:48:53.012Z,17.27
2019-02-28T10:51:22.019Z,16.10
2019-02-28T10:53:50.955Z,15.33
2019-02-28T10:56:19.942Z,16.30
2019-02-28T10:58:50.095Z,16.83
2019-02-28T11:01:19.655Z,17.53
2019-02-28T11:03:48.764Z,17.60
2019-02-28T11:06:17.768Z,13.73
2019-02-28T11:08:47.461Z,15.70
2019-02-28T11:11:17.273Z,16.07
2019-02-28T11:13:46.321Z,18.47
2019-02-28T11:16:15.460Z,18.00
2019-02-28T11:18:44.570Z,17.67
2019-02-28T11:21:14.921Z,17.20
2019-02-28T11:23:49.068Z,17.47
2019-02-28T11:26:15.923Z,17.80
2019-02-28T11:28:44.937Z,16.90
2019-02-28T11:31:16.375Z,17.00
2019-02-28T11:33:45.402Z,17.53
2019-02-28T11:36:14.409Z,16.47
2019-02-28T11:38:43.817Z,16.80
2019-02-28T11:41:15.501Z,18.50
2019-02-28T11:43:44.274Z,19.03
2019-02-28T11:46:13.702Z,17.70
2019-02-28T11:48:45.747Z,18.50
2019-02-28T11:51:17.616Z,18.50
2019-02-28T11:53:46.590Z,18.60
2019-02-28T11:56:16.029Z,19.00
2019-02-28T11:58:51.096Z,18.30
2019-02-28T12:01:16.846Z,17.67
2019-02-28T12:03:47.728Z,18.33
2019-02-28T12:06:22.450Z,16.90
2019-02-28T12:08:52.632Z,18.27
2019-02-28T12:11:21.571Z,17.60
2019-02-28T12:13:55.154Z,16.63
2019-02-28T12:16:25.091Z,16.10
2019-02-28T12:18:54.322Z,17.10
2019-02-28T12:21:23.386Z,16.67
2019-02-28T12:23:54.294Z,18.07
2019-02-28T12:26:23.323Z,17.63
2019-02-28T12:28:54.310Z,17.80
2019-02-28T12:31:23.205Z,18.23
2019-02-28T12:33:53.439Z,16.37
2019-02-28T12:36:22.916Z,17.83
2019-02-28T12:38:51.874Z,16.93
2019-02-28T12:41:21.608Z,18.73
2019-02-28T12:43:51.658Z,16.73
2019-02-28T12:46:20.651Z,16.97
2019-02-28T12:48:50.448Z,17.13
2019-02-28T12:51:19.567Z,17.33
2019-02-28T12:53:48.497Z,17.23
2019-02-28T12:56:17.437Z,18.30
2019-02-28T12:58:46.462Z,18.70
2019-02-28T13:01:15.519Z,16.97
2019-02-28T13:03:44.464Z,17.13
2019-02-28T13:06:13.522Z,17.90
2019-02-28T13:08:42.540Z,17.23
2019-02-28T13:11:11.453Z,17.13
2019-02-28T13:13:40.806Z,16.50
2019-02-28T13:16:09.825Z,17.30
2019-02-28T13:18:39.614Z,17.40
2019-02-28T13:21:10.663Z,15.93
2019-02-28T13:23:40.554Z,16.20
2019-02-28T13:26:09.673Z,15.20
2019-02-28T13:28:38.630Z,16.07
2019-02-28T13:31:07.972Z,16.17
2019-02-28T13:33:36.990Z,15.87
2019-02-28T13:36:06.522Z,17.70
2019-02-28T13:38:35.529Z,17.83
2019-02-28T13:41:04.572Z,16.03
2019-02-28T13:43:33.971Z,15.87
2019-02-28T13:46:02.906Z,15.43
2019-02-28T13:48:33.925Z,15.30
2019-02-28T13:51:08.016Z,15.73
2019-02-28T13:53:35.005Z,13.70
2019-02-28T13:56:05.047Z,12.43
2019-02-28T13:58:34.472Z,12.60
2019-02-28T14:01:04.462Z,12.83
2019-02-28T14:03:33.453Z,11.47
2019-02-28T14:06:02.497Z,12.70
2019-02-28T14:08:31.459Z,13.60
2019-02-28T14:11:00.467Z,15.00
2019-02-28T14:13:30.024Z,13.60
2019-02-28T14:16:00.951Z,14.77
2019-02-28T14:18:30.255Z,16.07
2019-02-28T14:20:59.545Z,17.17
2019-02-28T14:23:30.023Z,18.53
2019-02-28T14:25:59.116Z,19.90
2019-02-28T14:28:28.156Z,19.57
2019-02-28T14:30:58.788Z,40.63
2019-02-28T14:33:28.579Z,36.17
2019-02-28T14:35:57.749Z,36.57
2019-02-28T14:38:29.605Z,65.73
2019-02-28T14:40:59.348Z,36.40
2019-02-28T14:43:28.603Z,32.20
2019-02-28T14:45:57.676Z,22.60
2019-02-28T14:48:26.794Z,17.13
2019-02-28T14:50:55.774Z,18.50
2019-02-28T14:53:24.783Z,17.17
2019-02-28T14:55:54.059Z,17.77
2019-02-28T14:58:23.021Z,18.70
2019-02-28T15:00:52.075Z,18.47
2019-02-28T15:03:21.087Z,18.37
2019-02-28T15:05:52.482Z,20.57
2019-02-28T15:08:20.880Z,19.07
2019-02-28T15:10:49.982Z,19.13
2019-02-28T15:13:19.366Z,18.57
2019-02-28T15:15:49.574Z,19.27
2019-02-28T15:18:19.051Z,19.60
2019-02-28T15:20:48.273Z,19.10
2019-02-28T15:23:17.211Z,18.77
2019-02-28T15:25:46.255Z,19.10
2019-02-28T15:28:15.485Z,17.43
2019-02-28T15:30:44.433Z,18.57
2019-02-28T15:33:13.439Z,18.60
2019-02-28T15:35:42.445Z,18.80
2019-02-28T15:38:11.485Z,18.10
2019-02-28T15:40:40.821Z,15.37
2019-02-28T15:43:09.862Z,18.07
2019-02-28T15:45:39.147Z,15.80
2019-02-28T15:48:08.237Z,16.23
2019-02-28T15:50:37.266Z,16.83
2019-02-28T15:53:07.690Z,15.00
2019-02-28T15:55:37.044Z,13.80
2019-02-28T15:58:07.133Z,12.90
2019-02-28T16:00:36.466Z,12.23
2019-02-28T16:03:06.154Z,11.90
2019-02-28T16:05:35.226Z,12.50
2019-02-28T16:08:08.707Z,13.17
2019-02-28T16:10:35.304Z,12.20
2019-02-28T16:13:05.899Z,11.30
2019-02-28T16:15:35.199Z,11.73
2019-02-28T16:18:04.642Z,11.70
2019-02-28T16:20:33.751Z,12.07
2019-02-28T16:23:03.338Z,10.97
2019-02-28T16:25:33.570Z,11.73
2019-02-28T16:28:04.394Z,11.53
2019-02-28T16:30:33.374Z,10.93
2019-02-28T16:33:02.786Z,12.30
2019-02-28T16:35:31.831Z,12.80
2019-02-28T16:38:00.709Z,10.87
2019-02-28T16:40:29.805Z,10.83
2019-02-28T16:42:58.838Z,13.60
2019-02-28T16:45:33.787Z,11.53
2019-02-28T16:48:05.482Z,12.43
2019-02-28T16:50:34.545Z,12.60
2019-02-28T16:53:03.900Z,13.00
2019-02-28T16:55:32.972Z,12.63
2019-02-28T16:58:01.977Z,11.97
2019-02-28T17:00:31.193Z,12.60
2019-02-28T17:03:00.508Z,13.00
2019-02-28T17:05:29.512Z,12.40
2019-02-28T17:07:58.641Z,12.80
2019-02-28T17:10:34.944Z,12.10
2019-02-28T17:13:21.777Z,12.00
2019-02-28T17:16:16.159Z,12.80
2019-02-28T17:18:45.516Z,14.20
2019-02-28T17:21:17.957Z,16.73
2019-02-28T17:23:45.659Z,13.27
2019-02-28T17:26:14.690Z,11.43
2019-02-28T17:29:09.203Z,10.53
2019-02-28T17:31:48.209Z,9.90
2019-02-28T17:34:23.745Z,10.80
2019-02-28T17:36:49.809Z,10.00
2019-02-28T17:39:19.075Z,9.37
2019-02-28T17:41:48.699Z,10.40
2019-02-28T17:44:50.715Z,8.40
2019-02-28T17:47:52.612Z,7.93
2019-02-28T17:50:45.511Z,7.00
2019-02-28T17:54:03.110Z,8.53
2019-02-28T17:57:24.634Z,7.27
2019-02-28T18:00:20.823Z,10.90
2019-02-28T18:03:20.634Z,6.17
2019-02-28T18:06:02.831Z,6.23
2019-02-28T18:08:54.191Z,4.10
2019-02-28T18:11:37.959Z,5.20
2019-02-28T18:14:45.495Z,5.07
2019-02-28T18:17:55.021Z,4.40
2019-02-28T18:21:04.405Z,4.37
2019-02-28T18:24:04.190Z,3.37
2019-02-28T18:27:15.733Z,4.00
2019-02-28T18:30:21.643Z,3.47
2019-02-28T18:32:50.689Z,3.97
2019-02-28T18:35:19.724Z,3.63
2019-02-28T18:37:48.868Z,3.70
2019-02-28T18:40:17.963Z,4.43
2019-02-28T18:42:47.058Z,3.40
2019-02-28T18:45:19.106Z,4.03
2019-02-28T18:47:46.701Z,3.50
2019-02-28T18:50:15.902Z,4.50
2019-02-28T18:52:44.929Z,3.30
2019-02-28T18:55:13.962Z,4.07
2019-02-28T18:57:43.341Z,9.30
2019-02-28T19:00:13.499Z,5.53
2019-02-28T19:02:42.578Z,5.53
2019-02-28T19:05:11.782Z,4.87
2019-02-28T19:07:40.799Z,4.50
2019-02-28T19:10:09.936Z,5.53
2019-02-28T19:12:39.040Z,5.70
2019-02-28T19:15:08.634Z,6.43
2019-02-28T19:17:37.589Z,5.60
2019-02-28T19:20:06.761Z,4.80
2019-02-28T19:22:36.430Z,3.67
2019-02-28T19:25:06.010Z,3.13
2019-02-28T19:27:35.066Z,4.47
2019-02-28T19:30:04.947Z,3.27
2019-02-28T19:32:33.987Z,4.17
2019-02-28T19:35:03.010Z,3.40
2019-02-28T19:37:32.067Z,3.50
2019-02-28T19:40:01.030Z,3.07
2019-02-28T19:42:29.895Z,3.10
2019-02-28T19:44:58.847Z,3.07
2019-02-28T19:47:27.858Z,2.77
2019-02-28T19:49:57.018Z,3.43
2019-02-28T19:52:26.128Z,3.80
2019-02-28T19:54:55.069Z,3.50
2019-02-28T19:57:24.327Z,4.20
2019-02-28T19:59:53.447Z,3.30
2019-02-28T20:02:22.507Z,2.60
2019-02-28T20:04:51.986Z,3.30
2019-02-28T20:07:20.991Z,3.03
2019-02-28T20:09:49.962Z,3.93
2019-02-28T20:12:18.991Z,3.70
2019-02-28T20:14:48.015Z,3.87
2019-02-28T20:17:17.099Z,2.80
2019-02-28T20:19:46.363Z,2.90
2019-02-28T20:22:15.798Z,3.83
2019-02-28T20:24:44.777Z,3.30
2019-02-28T20:27:13.888Z,2.70
2019-02-28T20:29:44.142Z,2.60
2019-02-28T20:32:13.270Z,3.90
2019-02-28T20:34:42.207Z,3.23
2019-02-28T20:37:11.172Z,3.20
2019-02-28T20:39:40.189Z,4.40
2019-02-28T20:42:09.306Z,4.00
2019-02-28T20:44:38.418Z,3.53
2019-02-28T20:47:07.432Z,4.10
2019-02-28T20:49:36.626Z,3.27
2019-02-28T20:52:05.836Z,3.30
2019-02-28T20:54:34.855Z,2.87
2019-02-28T20:57:06.097Z,2.60
2019-02-28T20:59:35.069Z,3.07
2019-02-28T21:02:04.171Z,3.10
2019-02-28T21:04:33.715Z,4.13
2019-02-28T21:07:02.806Z,2.63
2019-02-28T21:09:31.811Z,3.07
2019-02-28T21:12:00.894Z,3.20
2019-02-28T21:14:29.798Z,2.50
2019-02-28T21:16:58.947Z,3.70
2019-02-28T21:19:28.015Z,3.50
2019-02-28T21:21:56.986Z,3.07
2019-02-28T21:24:26.003Z,3.50
2019-02-28T21:26:55.589Z,3.63
2019-02-28T21:29:24.708Z,4.17
2019-02-28T21:31:53.661Z,2.30
2019-02-28T21:34:22.688Z,2.70
2019-02-28T21:36:51.756Z,3.03
2019-02-28T21:39:20.669Z,3.43
2019-02-28T21:41:49.974Z,3.10
2019-02-28T21:44:19.179Z,3.33
2019-02-28T21:46:48.978Z,2.80
2019-02-28T21:49:17.913Z,2.87
2019-02-28T21:51:47.404Z,4.00
2019-02-28T21:54:16.465Z,3.93
2019-02-28T21:56:45.476Z,3.63
2019-02-28T21:59:14.938Z,3.00
2019-02-28T22:01:44.257Z,3.60
2019-02-28T22:04:13.583Z,4.30
2019-02-28T22:06:47.047Z,4.17
2019-02-28T22:09:19.174Z,2.73
2019-02-28T22:11:48.185Z,4.20
2019-02-28T22:14:17.174Z,3.23
2019-02-28T22:16:46.204Z,4.50
2019-02-28T22:19:15.226Z,2.43
2019-02-28T22:21:44.258Z,2.67
2019-02-28T22:24:13.189Z,2.40
2019-02-28T22:26:42.124Z,2.90
2019-02-28T22:29:11.178Z,2.60
2019-02-28T22:31:50.366Z,2.03
2019-02-28T22:34:29.626Z,2.43
2019-02-28T22:36:58.560Z,2.47
2019-02-28T22:39:27.498Z,3.00
2019-02-28T22:41:56.457Z,3.00
2019-02-28T22:44:25.468Z,2.87
2019-02-28T22:46:54.461Z,3.50
2019-02-28T22:49:23.427Z,2.90
2019-02-28T22:51:52.422Z,3.70
2019-02-28T22:54:21.453Z,3.20
2019-02-28T22:56:50.474Z,2.53
2019-02-28T22:59:19.469Z,3.20
2019-02-28T23:01:48.866Z,3.40
2019-02-28T23:04:17.909Z,3.10
2019-02-28T23:06:46.951Z,3.13
2019-02-28T23:09:15.942Z,2.80
2019-02-28T23:11:44.968Z,2.80
2019-02-28T23:14:13.874Z,2.63
2019-02-28T23:16:42.877Z,2.83
2019-02-28T23:19:11.926Z,2.40
2019-02-28T23:21:40.941Z,1.90
2019-02-28T23:24:10.007Z,2.10
2019-02-28T23:27:08.919Z,2.90
2019-02-28T23:29:38.118Z,2.53
2019-02-28T23:32:28.880Z,2.37
2019-02-28T23:34:58.100Z,3.00
2019-02-28T23:37:27.515Z,2.30
2019-02-28T23:39:56.536Z,2.50
2019-02-28T23:42:25.489Z,3.57
2019-02-28T23:44:54.418Z,2.40
2019-02-28T23:47:23.443Z,2.70
2019-02-28T23:49:52.461Z,2.40
2019-02-28T23:52:21.465Z,2.90
2019-02-28T23:54:50.470Z,2.33
2019-02-28T23:57:19.400Z,2.03
2019-02-28T23:59:48.261Z,3.20
